createdAt,value
2022-10-03T00:01:49.422Z,10.30
2022-10-03T00:04:27.611Z,10.30
2022-10-03T00:07:07.233Z,10.30
2022-10-03T00:10:05.893Z,10.20
2022-10-03T00:12:57.529Z,10.20
2022-10-03T00:15:33.140Z,10.20
2022-10-03T00:18:14.824Z,10.20
2022-10-03T00:20:53.513Z,10.20
2022-10-03T00:23:28.938Z,10.10
2022-10-03T00:26:24.005Z,10.10
2022-10-03T00:29:03.664Z,10.00
2022-10-03T00:31:44.936Z,10.00
2022-10-03T00:34:24.999Z,9.90
2022-10-03T00:37:05.411Z,9.90
2022-10-03T00:39:49.016Z,9.90
2022-10-03T00:42:52.408Z,9.80
2022-10-03T00:45:55.513Z,9.80
2022-10-03T00:48:54.309Z,9.80
2022-10-03T00:51:43.019Z,9.70
2022-10-03T00:54:38.993Z,9.60
2022-10-03T00:57:22.097Z,9.60
2022-10-03T01:00:07.837Z,9.50
2022-10-03T01:02:50.976Z,9.50
2022-10-03T01:05:33.587Z,9.40
2022-10-03T01:08:43.441Z,9.40
2022-10-03T01:11:30.133Z,9.50
2022-10-03T01:14:11.862Z,9.50
2022-10-03T01:16:54.493Z,9.50
2022-10-03T01:19:36.275Z,9.60
2022-10-03T01:22:23.908Z,9.60
2022-10-03T01:25:00.377Z,9.60
2022-10-03T01:28:00.571Z,9.60
2022-10-03T01:30:37.170Z,9.60
2022-10-03T01:33:11.273Z,9.70
2022-10-03T01:35:49.626Z,9.70
2022-10-03T01:38:26.241Z,9.70
2022-10-03T01:41:03.178Z,9.70
2022-10-03T01:43:42.325Z,9.60
2022-10-03T01:46:18.218Z,9.60
2022-10-03T01:48:55.350Z,9.60
2022-10-03T01:51:30.759Z,9.60
2022-10-03T01:54:13.517Z,9.60
2022-10-03T01:56:50.482Z,9.70
2022-10-03T01:59:23.864Z,9.70
2022-10-03T02:01:59.446Z,9.70
2022-10-03T02:04:38.720Z,9.80
2022-10-03T02:07:21.386Z,9.80
2022-10-03T02:09:59.049Z,9.80
2022-10-03T02:12:34.952Z,9.80
2022-10-03T02:15:14.320Z,9.80
2022-10-03T02:17:55.518Z,9.80
2022-10-03T02:20:29.365Z,9.80
2022-10-03T02:22:59.597Z,9.80
2022-10-03T02:25:41.924Z,9.80
2022-10-03T02:28:32.363Z,9.80
2022-10-03T02:31:28.326Z,9.80
2022-10-03T02:34:18.297Z,9.80
2022-10-03T02:37:05.216Z,9.80
2022-10-03T02:40:10.294Z,9.80
2022-10-03T02:43:04.883Z,9.80
2022-10-03T02:46:14.873Z,9.80
2022-10-03T02:49:22.555Z,9.70
2022-10-03T02:52:23.559Z,9.70
2022-10-03T02:55:00.129Z,9.60
2022-10-03T02:57:56.553Z,9.60
2022-10-03T03:00:37.175Z,9.50
2022-10-03T03:03:41.458Z,9.40
2022-10-03T03:06:32.446Z,9.40
2022-10-03T03:09:29.468Z,9.40
2022-10-03T03:12:29.751Z,9.30
2022-10-03T03:15:28.790Z,9.30
2022-10-03T03:18:10.100Z,9.30
2022-10-03T03:20:52.304Z,9.20
2022-10-03T03:23:40.299Z,9.20
2022-10-03T03:26:39.153Z,9.10
2022-10-03T03:29:18.093Z,9.10
2022-10-03T03:32:03.263Z,9.10
2022-10-03T03:34:37.460Z,9.00
2022-10-03T03:37:11.559Z,8.90
2022-10-03T03:39:57.608Z,8.90
2022-10-03T03:42:45.382Z,8.80
2022-10-03T03:45:29.539Z,8.80
2022-10-03T03:48:27.820Z,8.70
2022-10-03T03:51:05.694Z,8.70
2022-10-03T03:53:48.008Z,8.70
2022-10-03T03:56:33.249Z,8.80
2022-10-03T03:59:14.700Z,8.80
2022-10-03T04:01:57.983Z,8.80
2022-10-03T04:04:45.366Z,8.80
2022-10-03T04:07:25.784Z,8.80
2022-10-03T04:10:15.611Z,8.80
2022-10-03T04:12:57.914Z,8.80
2022-10-03T04:15:50.183Z,8.80
2022-10-03T04:18:46.389Z,8.70
2022-10-03T04:21:44.399Z,8.70
2022-10-03T04:24:36.921Z,8.70
2022-10-03T04:27:28.972Z,8.80
2022-10-03T04:30:07.277Z,8.80
2022-10-03T04:33:04.355Z,8.80
2022-10-03T04:36:12.092Z,8.80
2022-10-03T04:38:47.055Z,8.80
2022-10-03T04:41:30.019Z,8.80
2022-10-03T04:44:08.658Z,8.80
2022-10-03T04:46:44.346Z,8.90
2022-10-03T04:49:23.840Z,8.90
2022-10-03T04:51:55.848Z,9.00
2022-10-03T04:54:31.236Z,8.90
2022-10-03T04:57:07.084Z,9.00
2022-10-03T04:59:44.492Z,9.00
2022-10-03T05:02:26.853Z,9.00
2022-10-03T05:05:23.113Z,9.00
2022-10-03T05:07:59.640Z,9.00
2022-10-03T05:10:57.231Z,9.00
2022-10-03T05:13:37.491Z,9.10
2022-10-03T05:16:12.500Z,9.10
2022-10-03T05:18:48.520Z,9.10
2022-10-03T05:21:28.087Z,9.20
2022-10-03T05:24:03.199Z,9.20
2022-10-03T05:26:45.543Z,9.20
2022-10-03T05:29:21.870Z,9.20
2022-10-03T05:32:03.911Z,9.20
2022-10-03T05:34:41.427Z,9.20
2022-10-03T05:37:37.107Z,9.20
2022-10-03T05:40:16.942Z,9.20
2022-10-03T05:43:04.765Z,9.20
2022-10-03T05:45:48.383Z,9.30
2022-10-03T05:48:30.096Z,9.30
2022-10-03T05:51:22.126Z,9.30
2022-10-03T05:54:50.240Z,9.30
2022-10-03T05:57:36.674Z,9.40
2022-10-03T06:00:19.343Z,9.50
2022-10-03T06:03:23.753Z,9.40
2022-10-03T06:06:14.045Z,9.50
2022-10-03T06:09:02.469Z,9.50
2022-10-03T06:12:03.882Z,9.50
2022-10-03T06:14:50.552Z,9.50
2022-10-03T06:17:43.367Z,9.60
2022-10-03T06:20:44.292Z,9.60
2022-10-03T06:23:44.182Z,9.70
2022-10-03T06:27:03.132Z,9.70
2022-10-03T06:30:14.242Z,9.70
2022-10-03T06:33:25.505Z,9.80
2022-10-03T06:36:22.383Z,9.80
2022-10-03T06:39:22.084Z,9.80
2022-10-03T06:42:28.308Z,9.90
2022-10-03T06:45:32.091Z,9.90
2022-10-03T06:48:18.010Z,10.00
2022-10-03T06:50:57.288Z,10.00
2022-10-03T06:53:35.319Z,10.00
2022-10-03T06:56:27.988Z,10.00
2022-10-03T06:59:30.233Z,10.10
2022-10-03T07:02:32.103Z,10.10
2022-10-03T07:05:39.876Z,10.10
2022-10-03T07:08:45.269Z,10.20
2022-10-03T07:11:39.160Z,10.20
2022-10-03T07:14:28.290Z,10.30
2022-10-03T07:17:30.755Z,10.40
2022-10-03T07:20:17.403Z,10.40
2022-10-03T07:23:21.369Z,10.40
2022-10-03T07:26:31.795Z,10.50
2022-10-03T07:29:16.971Z,10.60
2022-10-03T07:31:59.495Z,10.60
2022-10-03T07:34:52.849Z,10.60
2022-10-03T07:37:48.565Z,10.70
2022-10-03T07:40:37.633Z,10.80
2022-10-03T07:43:56.287Z,10.90
2022-10-03T07:46:52.949Z,11.00
2022-10-03T07:49:55.756Z,11.00
2022-10-03T07:52:52.320Z,11.10
2022-10-03T07:55:43.330Z,11.20
2022-10-03T07:58:52.062Z,11.30
2022-10-03T08:01:53.358Z,11.50
2022-10-03T08:04:40.137Z,11.60
2022-10-03T08:07:32.294Z,11.60
2022-10-03T08:10:18.224Z,11.60
2022-10-03T08:13:03.450Z,11.70
2022-10-03T08:15:41.081Z,11.80
2022-10-03T08:18:52.256Z,12.00
2022-10-03T08:21:26.543Z,12.10
2022-10-03T08:24:23.421Z,12.10
2022-10-03T08:27:09.046Z,12.30
2022-10-03T08:30:07.210Z,12.30
2022-10-03T08:32:56.840Z,12.40
2022-10-03T08:36:07.519Z,12.50
2022-10-03T08:38:54.025Z,12.60
2022-10-03T08:41:55.480Z,12.60
2022-10-03T08:44:52.828Z,12.80
2022-10-03T08:48:05.756Z,13.00
2022-10-03T08:51:18.483Z,13.00
2022-10-03T08:54:05.117Z,13.20
2022-10-03T08:56:49.472Z,13.70
2022-10-03T09:00:03.238Z,13.80
2022-10-03T09:03:34.462Z,13.90
2022-10-03T09:06:33.107Z,13.90
2022-10-03T09:09:24.663Z,13.90
2022-10-03T09:12:25.648Z,14.10
2022-10-03T09:15:25.102Z,14.30
2022-10-03T09:18:10.447Z,14.40
2022-10-03T09:21:37.405Z,14.40
2022-10-03T09:24:55.149Z,14.20
2022-10-03T09:27:42.163Z,14.20
2022-10-03T09:30:26.255Z,14.10
2022-10-03T09:33:41.999Z,14.10
2022-10-03T09:36:30.616Z,14.10
2022-10-03T09:39:30.141Z,14.10
2022-10-03T09:42:31.110Z,14.10
2022-10-03T09:45:22.174Z,14.20
2022-10-03T09:48:26.392Z,14.40
2022-10-03T09:51:21.791Z,14.60
2022-10-03T09:54:37.712Z,15.20
2022-10-03T09:57:42.142Z,15.20
2022-10-03T10:00:20.282Z,15.40
2022-10-03T10:03:27.116Z,15.40
2022-10-03T10:06:24.966Z,15.30
2022-10-03T10:09:24.381Z,15.10
2022-10-03T10:12:28.686Z,14.80
2022-10-03T10:15:35.172Z,14.60
2022-10-03T10:18:51.752Z,14.50
2022-10-03T10:21:52.474Z,14.40
2022-10-03T10:24:51.343Z,14.40
2022-10-03T10:28:04.165Z,14.30
2022-10-03T10:30:53.184Z,14.30
2022-10-03T10:33:58.956Z,14.00
2022-10-03T10:37:19.130Z,13.90
2022-10-03T10:40:17.611Z,13.80
2022-10-03T10:43:21.115Z,13.70
2022-10-03T10:46:25.073Z,13.60
2022-10-03T10:49:38.531Z,13.50
2022-10-03T10:52:34.042Z,13.40
2022-10-03T10:55:46.324Z,13.40
2022-10-03T10:59:09.315Z,13.60
2022-10-03T11:02:22.987Z,13.80
2022-10-03T11:05:40.304Z,14.20
2022-10-03T11:09:09.407Z,14.30
2022-10-03T11:12:11.544Z,14.30
2022-10-03T11:15:12.818Z,14.50
2022-10-03T11:18:19.427Z,14.60
2022-10-03T11:21:26.582Z,14.70
2022-10-03T11:24:39.693Z,14.80
2022-10-03T11:27:46.721Z,15.20
2022-10-03T11:30:29.745Z,15.70
2022-10-03T11:33:48.820Z,16.70
2022-10-03T11:36:49.318Z,17.00
2022-10-03T11:39:27.742Z,17.00
2022-10-03T11:42:04.409Z,17.40
2022-10-03T11:44:35.583Z,18.20
2022-10-03T11:47:44.112Z,18.80
2022-10-03T11:50:35.049Z,19.40
2022-10-03T11:53:22.206Z,20.10
2022-10-03T11:56:02.157Z,20.10
2022-10-03T11:58:41.004Z,20.70
2022-10-03T12:01:28.743Z,20.40
2022-10-03T12:04:04.317Z,19.90
2022-10-03T12:07:08.127Z,19.20
2022-10-03T12:09:48.027Z,18.50
2022-10-03T12:12:28.081Z,17.80
2022-10-03T12:15:00.022Z,17.40
2022-10-03T12:17:33.888Z,17.20
2022-10-03T12:20:11.035Z,16.90
2022-10-03T12:22:49.982Z,16.70
2022-10-03T12:25:23.760Z,17.20
2022-10-03T12:28:02.708Z,18.40
2022-10-03T12:30:48.399Z,19.30
2022-10-03T12:33:49.149Z,20.10
2022-10-03T12:36:19.706Z,21.10
2022-10-03T12:39:19.173Z,20.60
2022-10-03T12:42:15.965Z,19.80
2022-10-03T12:44:53.138Z,20.20
2022-10-03T12:47:54.752Z,20.30
2022-10-03T12:50:39.102Z,20.50
2022-10-03T12:53:25.242Z,19.80
2022-10-03T12:56:08.401Z,19.20
2022-10-03T12:58:54.345Z,18.80
2022-10-03T13:01:35.670Z,18.40
2022-10-03T13:04:09.707Z,18.90
2022-10-03T13:07:03.693Z,18.90
2022-10-03T13:09:57.487Z,19.50
2022-10-03T13:12:39.225Z,20.10
2022-10-03T13:15:44.451Z,20.20
2022-10-03T13:18:30.424Z,20.60
2022-10-03T13:21:33.378Z,20.30
2022-10-03T13:24:01.995Z,19.70
2022-10-03T13:26:47.559Z,18.80
2022-10-03T13:29:23.798Z,18.50
2022-10-03T13:32:05.265Z,19.30
2022-10-03T13:34:47.547Z,20.20
2022-10-03T13:37:27.161Z,20.70
2022-10-03T13:40:03.167Z,20.10
2022-10-03T13:42:37.381Z,19.40
2022-10-03T13:45:14.996Z,19.10
2022-10-03T13:47:49.413Z,19.30
2022-10-03T13:50:26.817Z,19.10
2022-10-03T13:53:00.955Z,18.70
2022-10-03T13:55:39.834Z,18.20
2022-10-03T13:58:30.452Z,17.80
2022-10-03T14:01:21.669Z,17.50
2022-10-03T14:04:11.847Z,17.20
2022-10-03T14:06:51.080Z,17.00
2022-10-03T14:09:34.992Z,17.00
2022-10-03T14:12:13.473Z,17.00
2022-10-03T14:14:53.045Z,16.80
2022-10-03T14:17:32.370Z,16.60
2022-10-03T14:20:13.669Z,16.60
2022-10-03T14:23:49.172Z,16.40
2022-10-03T14:26:44.217Z,16.20
2022-10-03T14:29:27.178Z,16.00
2022-10-03T14:31:59.205Z,15.70
2022-10-03T14:34:39.536Z,15.50
2022-10-03T14:37:21.518Z,15.20
2022-10-03T14:40:05.065Z,15.10
2022-10-03T14:42:50.107Z,15.00
2022-10-03T14:45:21.615Z,14.90
2022-10-03T14:47:52.708Z,14.80
2022-10-03T14:50:25.496Z,14.70
2022-10-03T14:53:02.224Z,14.60
2022-10-03T14:55:34.951Z,14.50
2022-10-03T14:58:10.685Z,14.50
2022-10-03T15:00:44.106Z,14.40
2022-10-03T15:03:33.698Z,14.30
2022-10-03T15:06:19.828Z,14.20
2022-10-03T15:08:52.376Z,14.10
2022-10-03T15:11:27.222Z,14.10
2022-10-03T15:14:02.338Z,13.90
2022-10-03T15:16:34.619Z,13.90
2022-10-03T15:19:08.010Z,13.80
2022-10-03T15:21:37.390Z,13.70
2022-10-03T15:24:06.292Z,13.60
2022-10-03T15:26:37.275Z,13.60
2022-10-03T15:29:08.526Z,13.50
2022-10-03T15:31:39.902Z,13.40
2022-10-03T15:34:16.956Z,13.30
2022-10-03T15:36:49.328Z,13.30
2022-10-03T15:39:25.436Z,13.20
2022-10-03T15:41:57.485Z,13.20
2022-10-03T15:44:33.611Z,13.10
2022-10-03T15:47:07.068Z,13.00
2022-10-03T15:49:39.636Z,12.90
2022-10-03T15:52:15.769Z,12.90
2022-10-03T15:54:48.797Z,12.80
2022-10-03T15:57:24.242Z,12.80
2022-10-03T16:00:02.071Z,12.70
2022-10-03T16:02:36.418Z,12.60
2022-10-03T16:05:07.517Z,12.50
2022-10-03T16:07:41.666Z,12.50
2022-10-03T16:10:20.464Z,12.40
2022-10-03T16:13:07.840Z,12.40
2022-10-03T16:15:54.606Z,12.30
2022-10-03T16:18:52.299Z,12.30
2022-10-03T16:21:43.142Z,12.20
2022-10-03T16:24:25.730Z,12.20
2022-10-03T16:26:57.018Z,12.10
2022-10-03T16:29:30.673Z,12.00
2022-10-03T16:32:04.937Z,11.90
2022-10-03T16:34:35.217Z,11.90
2022-10-03T16:37:06.245Z,11.80
2022-10-03T16:39:36.956Z,11.80
2022-10-03T16:42:12.706Z,11.70
2022-10-03T16:44:50.995Z,11.70
2022-10-03T16:47:32.177Z,11.60
2022-10-03T16:50:19.269Z,11.60
2022-10-03T16:52:52.008Z,11.50
2022-10-03T16:55:26.076Z,11.50
2022-10-03T16:57:58.367Z,11.50
2022-10-03T17:00:34.022Z,11.50
2022-10-03T17:03:06.533Z,11.40
2022-10-03T17:05:41.998Z,11.50
2022-10-03T17:08:40.270Z,11.40
2022-10-03T17:11:05.353Z,11.40
2022-10-03T17:13:48.011Z,11.40
2022-10-03T17:16:27.552Z,11.40
2022-10-03T17:19:13.245Z,11.40
2022-10-03T17:21:44.103Z,11.30
2022-10-03T17:24:16.037Z,11.30
2022-10-03T17:26:47.135Z,11.30
2022-10-03T17:29:19.244Z,11.20
2022-10-03T17:31:55.032Z,11.20
2022-10-03T17:34:26.992Z,11.20
2022-10-03T17:37:10.890Z,11.20
2022-10-03T17:39:44.033Z,11.10
2022-10-03T17:42:27.725Z,11.10
2022-10-03T17:45:00.677Z,11.10
2022-10-03T17:47:37.590Z,11.10
2022-10-03T17:50:14.556Z,11.00
2022-10-03T17:52:46.408Z,11.00
2022-10-03T17:55:20.020Z,11.00
2022-10-03T17:57:51.808Z,11.00
2022-10-03T18:00:22.797Z,11.00
2022-10-03T18:02:59.851Z,11.00
2022-10-03T18:05:30.699Z,11.00
2022-10-03T18:08:05.565Z,10.90
2022-10-03T18:10:37.781Z,10.90
2022-10-03T18:13:15.829Z,10.90
2022-10-03T18:16:14.695Z,11.00
2022-10-03T18:19:07.123Z,10.90
2022-10-03T18:21:46.868Z,10.90
2022-10-03T18:24:26.060Z,10.90
2022-10-03T18:27:10.926Z,10.90
2022-10-03T18:29:48.392Z,10.90
2022-10-03T18:32:22.528Z,10.90
2022-10-03T18:35:04.192Z,10.90
2022-10-03T18:38:04.835Z,10.90
2022-10-03T18:40:36.144Z,10.90
2022-10-03T18:43:06.497Z,10.90
2022-10-03T18:45:44.088Z,10.90
2022-10-03T18:48:17.715Z,10.90
2022-10-03T18:50:59.046Z,10.90
2022-10-03T18:53:36.236Z,10.90
2022-10-03T18:56:08.345Z,10.80
2022-10-03T18:58:39.030Z,10.80
2022-10-03T19:01:19.561Z,10.80
2022-10-03T19:03:53.136Z,10.80
2022-10-03T19:06:26.271Z,10.80
2022-10-03T19:08:57.555Z,10.90
2022-10-03T19:11:31.008Z,10.90
2022-10-03T19:14:04.170Z,10.90
2022-10-03T19:16:47.255Z,10.90
2022-10-03T19:19:24.831Z,10.90
2022-10-03T19:21:54.830Z,10.90
2022-10-03T19:24:53.469Z,10.90
2022-10-03T19:27:19.600Z,11.00
2022-10-03T19:29:52.116Z,10.90
2022-10-03T19:32:27.273Z,10.90
2022-10-03T19:34:59.501Z,10.90
2022-10-03T19:37:45.100Z,10.90
2022-10-03T19:40:16.610Z,10.90
2022-10-03T19:42:49.301Z,10.90
2022-10-03T19:45:19.979Z,10.90
2022-10-03T19:47:53.536Z,10.90
2022-10-03T19:50:28.045Z,10.80
2022-10-03T19:52:57.681Z,10.80
2022-10-03T19:55:31.853Z,10.80
2022-10-03T19:58:02.359Z,10.80
2022-10-03T20:00:32.754Z,10.80
2022-10-03T20:03:07.933Z,10.80
2022-10-03T20:05:43.989Z,10.80
2022-10-03T20:08:22.910Z,10.80
2022-10-03T20:11:05.592Z,10.80
2022-10-03T20:13:33.770Z,10.80
2022-10-03T20:16:03.518Z,10.70
2022-10-03T20:18:34.549Z,10.70
2022-10-03T20:21:04.118Z,10.70
2022-10-03T20:23:35.806Z,10.70
2022-10-03T20:26:10.097Z,10.70
2022-10-03T20:29:01.230Z,10.70
2022-10-03T20:31:30.842Z,10.70
2022-10-03T20:34:02.121Z,10.70
2022-10-03T20:36:32.656Z,10.70
2022-10-03T20:39:12.067Z,10.60
2022-10-03T20:41:53.850Z,10.60
2022-10-03T20:44:36.065Z,10.60
2022-10-03T20:47:08.353Z,10.60
2022-10-03T20:49:40.815Z,10.60
2022-10-03T20:52:17.567Z,10.60
2022-10-03T20:54:51.496Z,10.60
2022-10-03T20:57:22.320Z,10.60
2022-10-03T20:59:53.551Z,10.50
2022-10-03T21:02:28.937Z,10.60
2022-10-03T21:05:02.107Z,10.60
2022-10-03T21:07:37.521Z,10.60
2022-10-03T21:10:18.809Z,10.50
2022-10-03T21:12:49.889Z,10.60
2022-10-03T21:15:29.747Z,10.60
2022-10-03T21:17:58.988Z,10.60
2022-10-03T21:20:35.661Z,10.60
2022-10-03T21:23:21.338Z,10.60
2022-10-03T21:25:53.757Z,10.50
2022-10-03T21:28:27.680Z,10.50
2022-10-03T21:31:24.990Z,10.50
2022-10-03T21:34:06.641Z,10.50
2022-10-03T21:36:40.693Z,10.40
2022-10-03T21:39:18.292Z,10.40
2022-10-03T21:42:01.247Z,10.30
2022-10-03T21:44:45.892Z,10.40
2022-10-03T21:47:29.353Z,10.30
2022-10-03T21:49:59.353Z,10.30
2022-10-03T21:52:51.322Z,10.30
2022-10-03T21:55:51.100Z,10.30
2022-10-03T21:58:45.203Z,10.20
2022-10-03T22:01:19.087Z,10.20
2022-10-03T22:03:52.609Z,10.10
2022-10-03T22:06:25.397Z,10.10
2022-10-03T22:08:54.551Z,10.10
2022-10-03T22:11:35.643Z,10.20
2022-10-03T22:14:14.221Z,10.20
2022-10-03T22:16:49.820Z,10.30
2022-10-03T22:19:23.132Z,10.20
2022-10-03T22:22:04.611Z,10.20
2022-10-03T22:24:44.528Z,10.20
2022-10-03T22:27:18.902Z,10.10
2022-10-03T22:29:59.876Z,10.10
2022-10-03T22:32:34.103Z,10.00
2022-10-03T22:35:30.082Z,9.90
2022-10-03T22:37:58.659Z,9.90
2022-10-03T22:40:28.126Z,9.90
2022-10-03T22:42:58.089Z,9.80
2022-10-03T22:45:30.724Z,9.80
2022-10-03T22:48:00.366Z,9.80
2022-10-03T22:50:31.557Z,9.80
2022-10-03T22:53:01.477Z,9.70
2022-10-03T22:55:31.414Z,9.70
2022-10-03T22:58:02.108Z,9.60
2022-10-03T23:00:35.633Z,9.50
2022-10-03T23:03:08.271Z,9.50
2022-10-03T23:06:11.331Z,9.40
2022-10-03T23:08:49.965Z,9.40
2022-10-03T23:11:23.160Z,9.30
2022-10-03T23:13:51.635Z,9.30
2022-10-03T23:16:39.277Z,9.20
2022-10-03T23:19:20.213Z,9.20
2022-10-03T23:21:49.729Z,9.20
2022-10-03T23:24:24.235Z,9.30
2022-10-03T23:27:33.808Z,9.20
2022-10-03T23:30:50.613Z,9.30
2022-10-03T23:33:50.125Z,9.30
2022-10-03T23:36:19.488Z,9.30
2022-10-03T23:39:02.823Z,9.40
2022-10-03T23:41:44.828Z,9.40
2022-10-03T23:44:50.932Z,9.40
2022-10-03T23:47:24.245Z,9.40
2022-10-03T23:49:55.450Z,9.40
2022-10-03T23:52:27.304Z,9.50
2022-10-03T23:54:58.304Z,9.50
2022-10-03T23:57:31.763Z,9.50
2022-10-03T23:59:59.851Z,9.60
